Time;durP1;ratioP1;P1;durP2;ratioP2;P2;SDS_P1;SDS_P2;PMS_P1;PMS_P2;Temp;Humidity;BMP_temperature;BMP_pressure;BME280_temperature;BME280_humidity;BME280_pressure;Samples;Min_cycle;Max_cycle;Signal;HPM_P1;HPM_P2
2023/01/22 00:03:35;;;;;;;26.52;11.35;;;;;;;0.87;100.00;100715.81;12192753;19;20002;-76
2023/01/22 00:07:37;;;;;;;;;;;;;;;0.91;100.00;100719.03;12192970;19;20426;-77
2023/01/22 00:11:38;;;;;;;25.83;9.57;;;;;;;0.94;100.00;100717.84;12169889;19;19947;-77
2023/01/22 00:15:40;;;;;;;25.15;10.10;;;;;;;0.94;100.00;100715.13;12191467;19;20035;-76
2023/01/22 00:19:42;;;;;;;25.05;10.45;;;;;;;0.94;100.00;100712.44;12193599;19;20007;-76
2023/01/22 00:23:43;;;;;;;22.88;9.48;;;;;;;0.98;100.00;100719.22;12169191;19;20030;-76
2023/01/22 00:27:45;;;;;;;20.10;8.50;;;;;;;1.00;100.00;100712.59;12189245;19;20367;-76
2023/01/22 00:31:46;;;;;;;18.30;8.25;;;;;;;1.07;100.00;100700.09;12190539;19;20014;-76
2023/01/22 00:35:48;;;;;;;20.63;8.13;;;;;;;1.09;100.00;100703.47;12173157;19;20010;-77
2023/01/22 00:39:50;;;;;;;20.17;8.18;;;;;;;1.14;100.00;100697.56;12191047;19;20015;-77
2023/01/22 00:43:51;;;;;;;18.00;7.95;;;;;;;1.16;100.00;100694.66;12191897;19;20448;-76
2023/01/22 00:47:53;;;;;;;17.98;8.00;;;;;;;1.23;100.00;100695.69;12166139;19;20680;-76
2023/01/22 00:51:55;;;;;;;22.92;8.20;;;;;;;1.18;100.00;100688.03;12189587;19;20461;-76
2023/01/22 00:55:59;;;;;;;17.17;8.10;;;;;;;1.20;100.00;100686.03;12190786;19;20035;-76
2023/01/22 01:00:01;;;;;;;17.80;8.27;;;;;;;1.26;100.00;100689.94;12171901;19;20003;-76
2023/01/22 01:04:04;;;;;;;16.77;7.60;;;;;;;1.23;100.00;100688.41;12196912;19;20564;-76
2023/01/22 01:08:06;;;;;;;16.92;7.03;;;;;;;1.26;100.00;100688.06;12189598;19;20326;-77
2023/01/22 01:12:08;;;;;;;17.23;7.45;;;;;;;1.26;100.00;100685.34;12167786;19;20010;-77
2023/01/22 01:16:16;;;;;;;15.90;7.07;;;;;;;1.31;100.00;100688.41;12188437;19;20441;-76
2023/01/22 01:20:21;;;;;;;17.40;7.97;;;;;;;1.33;100.00;100694.50;12168533;19;20255;-77
2023/01/22 01:24:23;;;;;;;22.02;7.32;;;;;;;1.38;100.00;100687.75;12185626;19;20016;-77
2023/01/22 01:28:27;;;;;;;15.10;6.90;;;;;;;1.39;100.00;100682.13;12194497;19;20014;-76
2023/01/22 01:32:29;;;;;;;13.10;5.65;;;;;;;1.33;100.00;100685.50;12168620;19;20017;-77
2023/01/22 01:36:32;;;;;;;14.15;6.68;;;;;;;1.39;100.00;100690.28;12189507;19;20010;-76
2023/01/22 01:40:50;;;;;;;13.80;6.90;;;;;;;1.34;100.00;100685.38;12194315;19;20011;-76
2023/01/22 01:45:18;;;;;;;13.80;6.18;;;;;;;1.38;100.00;100680.44;12212076;19;20041;-77
2023/01/22 01:49:31;;;;;;;16.05;6.25;;;;;;;1.33;100.00;100680.09;12232833;19;20006;-77
2023/01/22 01:53:35;;;;;;;17.60;6.90;;;;;;;1.34;100.00;100679.94;12172971;19;20016;-77
2023/01/22 01:57:38;;;;;;;16.48;7.00;;;;;;;1.39;100.00;100684.00;12188487;19;20124;-77
2023/01/22 02:01:41;;;;;;;12.85;5.68;;;;;;;1.34;100.00;100677.22;12189181;19;20026;-77
2023/01/22 02:05:42;;;;;;;13.52;5.97;;;;;;;1.34;100.00;100677.22;12168444;19;20006;-77
2023/01/22 02:09:45;;;;;;;13.52;6.60;;;;;;;1.32;100.00;100683.81;12191286;19;20480;-77
2023/01/22 02:13:56;;;;;;;13.38;6.53;;;;;;;1.32;100.00;100668.38;12185595;19;20015;-78
2023/01/22 02:17:59;;;;;;;13.85;6.00;;;;;;;1.38;100.00;100668.72;12167980;19;20003;-76
2023/01/22 02:22:01;;;;;;;15.20;6.32;;;;;;;1.37;100.00;100670.59;12188702;19;20012;-78
2023/01/22 02:26:03;;;;;;;13.10;6.57;;;;;;;1.35;100.00;100669.91;12190311;19;20007;-77
2023/01/22 02:30:05;;;;;;;15.70;5.73;;;;;;;1.33;100.00;100675.50;12166895;19;19999;-78
2023/01/22 02:34:09;;;;;;;11.93;5.18;;;;;;;1.31;100.00;100674.84;12189856;19;20472;-77
2023/01/22 02:38:13;;;;;;;12.88;5.55;;;;;;;1.28;100.00;100666.16;12184241;19;20035;-77
2023/01/22 02:42:15;;;;;;;13.32;6.20;;;;;;;1.25;100.00;100667.38;12168126;19;20006;-77
2023/01/22 02:46:17;;;;;;;12.98;5.85;;;;;;;1.27;100.00;100665.31;12176973;19;20002;-77
2023/01/22 02:50:19;;;;;;;12.13;6.05;;;;;;;1.29;100.00;100665.16;12167117;19;20017;-76
2023/01/22 02:54:21;;;;;;;13.17;5.47;;;;;;;1.24;100.00;100665.66;12194061;19;20007;-78
2023/01/22 02:58:23;;;;;;;;;;;;;;;1.22;100.00;100670.41;12190680;19;20770;-77
2023/01/22 03:02:25;;;;;;;12.25;4.50;;;;;;;1.23;100.00;100663.13;12169618;19;19907;-77
2023/01/22 03:06:28;;;;;;;10.47;4.40;;;;;;;1.19;100.00;100657.19;12190531;19;20038;-77
2023/01/22 03:10:33;;;;;;;12.45;4.90;;;;;;;1.21;100.00;100657.84;12191486;19;20010;-76
2023/01/22 03:23:16;;;;;;;10.52;4.85;;;;;;;1.21;100.00;100660.56;12170483;19;20002;-78
2023/01/22 03:27:22;;;;;;;9.23;4.30;;;;;;;1.21;100.00;100665.97;12187970;19;20014;-77
2023/01/22 03:31:24;;;;;;;10.27;4.65;;;;;;;1.23;100.00;100657.69;12194391;19;20007;-79
2023/01/22 03:35:26;;;;;;;9.70;4.35;;;;;;;1.23;100.00;100650.38;12179486;19;20011;-79
2023/01/22 03:39:41;;;;;;;8.88;4.55;;;;;;;1.25;100.00;100658.34;12200649;19;20011;-80
2023/01/22 03:43:48;;;;;;;9.45;4.28;;;;;;;1.24;100.00;100654.78;12205359;19;20007;-78
2023/01/22 03:47:53;;;;;;;10.73;4.97;;;;;;;1.25;100.00;100655.63;12185247;19;20750;-78
2023/01/22 03:52:03;;;;;;;9.23;4.70;;;;;;;1.24;100.00;100652.06;12212815;19;20002;-77
2023/01/22 03:56:07;;;;;;;8.55;3.97;;;;;;;1.19;100.00;100656.31;12205163;19;20007;-80
2023/01/22 04:00:12;;;;;;;12.50;4.97;;;;;;;1.21;100.00;100660.56;12183234;19;20562;-79
2023/01/22 04:04:16;;;;;;;9.02;4.22;;;;;;;1.20;100.00;100658.88;12203199;19;20341;-78
2023/01/22 04:08:21;;;;;;;7.68;4.13;;;;;;;1.24;100.00;100654.78;12185010;19;20502;-79
2023/01/22 04:12:23;;;;;;;8.25;4.20;;;;;;;1.25;100.00;100664.66;12210581;19;20084;-78
2023/01/22 04:16:25;;;;;;;7.30;4.03;;;;;;;1.24;100.00;100660.22;12208112;19;20036;-77
2023/01/22 04:20:41;;;;;;;8.68;3.75;;;;;;;1.27;100.00;100670.75;12188941;19;20248;-77
2023/01/22 04:24:53;;;;;;;9.80;4.18;;;;;;;1.28;100.00;100666.16;12211959;19;20074;-77
2023/01/22 04:28:55;;;;;;;7.65;3.75;;;;;;;1.30;100.00;100675.00;12205105;19;20007;-78
2023/01/22 04:32:58;;;;;;;9.15;4.50;;;;;;;1.27;100.00;100673.47;12181491;19;20006;-79
2023/01/22 04:37:05;;;;;;;7.60;4.05;;;;;;;1.25;100.00;100670.09;12206040;19;20010;-77
2023/01/22 04:41:09;;;;;;;8.43;4.50;;;;;;;1.24;100.00;100670.22;12206360;19;20020;-78
2023/01/22 04:45:11;;;;;;;;;;;;;;;1.27;100.00;100673.47;12180482;19;20078;-79
2023/01/22 04:49:13;;;;;;;7.95;3.47;;;;;;;1.24;100.00;100676.50;12204887;19;20085;-79
2023/01/22 04:53:16;;;;;;;7.13;3.72;;;;;;;1.22;100.00;100673.13;12181704;19;20009;-79
2023/01/22 04:57:19;;;;;;;8.52;4.22;;;;;;;1.24;100.00;100681.94;12199978;19;20007;-80
2023/01/22 05:01:23;;;;;;;4.97;3.00;;;;;;;1.27;100.00;100676.16;12202987;19;20007;-78
2023/01/22 05:05:26;;;;;;;7.00;3.50;;;;;;;1.24;100.00;100679.22;12178951;19;20011;-79
2023/01/22 05:09:28;;;;;;;7.57;3.78;;;;;;;1.28;100.00;100680.59;12202521;19;20019;-77
2023/01/22 05:13:34;;;;;;;9.30;3.85;;;;;;;1.35;100.00;100687.06;12197372;19;20469;-78
2023/01/22 05:17:35;;;;;;;7.78;3.97;;;;;;;1.32;100.00;100679.25;12176982;19;20879;-79
2023/01/22 05:21:37;;;;;;;7.45;3.35;;;;;;;1.33;100.00;100686.34;12201667;19;20551;-77
2023/01/22 05:25:45;;;;;;;5.70;3.03;;;;;;;1.34;100.00;100688.06;12210208;19;20070;-79
2023/01/22 05:29:47;;;;;;;6.78;3.20;;;;;;;1.33;100.00;100691.78;12196099;19;20013;-78
2023/01/22 05:34:05;;;;;;;5.80;3.08;;;;;;;1.32;100.00;100698.25;12193827;19;20006;-77
2023/01/22 05:38:07;;;;;;;5.38;3.45;;;;;;;1.34;100.00;100696.22;12198901;19;20552;-79
2023/01/22 05:42:13;;;;;;;6.72;3.42;;;;;;;1.39;100.00;100697.56;12174580;19;20094;-79
2023/01/22 05:46:17;;;;;;;7.43;3.63;;;;;;;1.39;100.00;100706.56;12197246;19;20270;-79
2023/01/22 05:50:39;;;;;;;5.72;3.33;;;;;;;1.39;100.00;100698.41;12176041;19;20492;-79
2023/01/22 05:54:43;;;;;;;5.55;2.85;;;;;;;1.42;100.00;100697.22;12193074;19;20014;-79
2023/01/22 05:58:45;;;;;;;7.30;2.92;;;;;;;1.43;100.00;100705.22;12198100;19;20006;-80
2023/01/22 06:02:47;;;;;;;6.23;3.23;;;;;;;1.44;100.00;100708.78;12177490;19;20003;-79
2023/01/22 06:06:49;;;;;;;4.63;2.50;;;;;;;1.46;100.00;100701.31;12199041;19;20251;-79
2023/01/22 06:11:00;;;;;;;5.43;2.50;;;;;;;1.48;100.00;100705.56;12203173;19;20010;-81
2023/01/22 06:15:02;;;;;;;7.47;4.43;;;;;;;1.49;100.00;100707.28;12198309;19;20100;-83
2023/01/22 06:19:04;;;;;;;5.70;2.97;;;;;;;1.49;100.00;100704.56;12232807;19;20642;-83
2023/01/22 06:23:12;;;;;;;8.25;3.13;;;;;;;1.48;100.00;100710.97;12231492;19;20025;-81
2023/01/22 06:27:15;;;;;;;6.97;3.00;;;;;;;1.51;100.00;100712.53;12201738;19;20010;-82
2023/01/22 06:31:33;;;;;;;6.18;3.30;;;;;;;1.56;100.00;100712.88;12229899;19;20003;-80
2023/01/22 06:35:36;;;;;;;6.32;3.15;;;;;;;1.55;100.00;100716.63;12198702;19;20022;-79
2023/01/22 06:39:38;;;;;;;3.92;2.40;;;;;;;1.52;100.00;100716.94;12215259;19;20015;-79
2023/01/22 06:43:52;;;;;;;6.38;3.15;;;;;;;1.51;100.00;100723.38;12219914;19;20011;-80
2023/01/22 06:47:54;;;;;;;6.45;3.35;;;;;;;1.53;100.00;100730.34;12200070;19;20006;-80
2023/01/22 06:51:55;;;;;;;6.30;3.40;;;;;;;1.57;100.00;100730.84;12209830;19;20030;-80
2023/01/22 06:55:58;;;;;;;5.60;2.97;;;;;;;1.57;100.00;100739.00;12205037;19;20007;-80
2023/01/22 07:00:00;;;;;;;;;;;;;;;1.60;100.00;100738.66;12194541;19;20513;-81
2023/01/22 07:04:02;;;;;;;5.95;3.15;;;;;;;1.60;100.00;100736.78;12212860;19;19922;-80
2023/01/22 07:08:04;;;;;;;6.40;3.38;;;;;;;1.62;100.00;100746.66;12225334;19;20018;-80
2023/01/22 07:12:05;;;;;;;5.75;3.10;;;;;;;1.61;100.00;100748.53;12220668;19;20031;-81
2023/01/22 07:16:07;;;;;;;8.50;3.80;;;;;;;1.62;100.00;100754.81;12274952;19;19995;-81
2023/01/22 07:20:09;;;;;;;6.78;3.35;;;;;;;1.66;100.00;100759.72;12261877;19;20003;-82
2023/01/22 07:24:11;;;;;;;6.47;3.35;;;;;;;1.67;100.00;100769.59;12215316;19;20013;-81
2023/01/22 07:28:13;;;;;;;6.75;3.42;;;;;;;1.68;100.00;100770.44;12234770;19;20077;-81
2023/01/22 07:32:15;;;;;;;5.90;3.10;;;;;;;1.66;100.00;100767.03;12213050;19;20027;-81
2023/01/22 07:36:17;;;;;;;5.85;2.90;;;;;;;1.57;100.00;100775.16;12221784;19;20073;-82
2023/01/22 07:40:18;;;;;;;7.63;3.50;;;;;;;1.65;100.00;100778.94;12223984;19;20014;-81
2023/01/22 07:44:20;;;;;;;7.85;3.45;;;;;;;1.65;100.00;100777.06;12203730;19;20046;-82
2023/01/22 07:48:23;;;;;;;6.65;3.55;;;;;;;1.65;100.00;100779.78;12223498;19;20003;-81
2023/01/22 07:52:25;;;;;;;7.65;3.33;;;;;;;1.69;100.00;100777.56;12215022;19;20034;-81
2023/01/22 07:56:26;;;;;;;6.10;3.22;;;;;;;1.72;100.00;100793.53;12199487;19;20006;-81
2023/01/22 08:00:29;;;;;;;6.93;3.40;;;;;;;1.77;100.00;100802.88;12218438;19;20879;-80
2023/01/22 08:04:30;;;;;;;5.97;3.28;;;;;;;1.79;100.00;100803.56;12214079;19;20017;-80
2023/01/22 08:08:32;;;;;;;6.13;3.50;;;;;;;1.88;100.00;100803.59;12191709;19;20038;-81
2023/01/22 08:12:36;;;;;;;7.38;3.58;;;;;;;1.89;100.00;100811.53;12210959;19;20334;-80
2023/01/22 08:16:37;;;;;;;5.80;3.50;;;;;;;1.94;100.00;100821.94;12205061;19;20015;-80
2023/01/22 08:20:39;;;;;;;5.90;3.33;;;;;;;2.03;100.00;100823.63;12180657;19;20050;-80
2023/01/22 08:24:41;;;;;;;7.28;3.15;;;;;;;2.06;100.00;100817.84;12197518;19;20093;-80
2023/01/22 08:28:43;;;;;;;7.05;3.63;;;;;;;2.11;100.00;100829.03;12195527;19;20007;-80
2023/01/22 08:32:45;;;;;;;6.18;3.25;;;;;;;2.09;100.00;100831.09;12175350;19;20022;-81
2023/01/22 08:36:47;;;;;;;5.38;3.10;;;;;;;2.16;100.00;100832.13;12193047;19;20029;-81
2023/01/22 08:40:49;;;;;;;7.57;4.07;;;;;;;2.16;100.00;100844.88;12189030;19;20031;-80
2023/01/22 08:44:51;;;;;;;5.93;3.80;;;;;;;2.20;100.00;100846.22;12142132;19;20010;-80
2023/01/22 08:48:52;;;;;;;7.07;3.28;;;;;;;2.27;100.00;100845.38;12197307;19;20007;-80
2023/01/22 08:52:57;;;;;;;7.63;3.97;;;;;;;2.32;100.00;100846.72;12202681;19;20030;-79
2023/01/22 08:56:59;;;;;;;6.65;3.70;;;;;;;2.38;100.00;100838.75;12179244;19;20019;-80
2023/01/22 09:01:00;;;;;;;6.70;3.75;;;;;;;2.49;100.00;100843.81;12188840;19;20026;-81
2023/01/22 09:05:02;;;;;;;6.32;3.58;;;;;;;2.53;100.00;100847.06;12204217;19;20013;-82
2023/01/22 09:09:05;;;;;;;8.85;3.92;;;;;;;2.59;100.00;100840.06;12181398;19;20006;-80
2023/01/22 09:13:06;;;;;;;66.25;28.33;;;;;;;2.68;100.00;100845.34;12205847;19;20440;-83
2023/01/22 09:17:08;;;;;;;117.35;43.15;;;;;;;2.68;100.00;100839.88;12207975;19;20630;-85
2023/01/22 09:21:10;;;;;;;43.75;19.38;;;;;;;2.72;100.00;100852.13;12183576;19;20021;-84
2023/01/22 09:25:12;;;;;;;15.93;8.80;;;;;;;2.74;100.00;100860.97;12209426;19;20014;-82
2023/01/22 09:29:13;;;;;;;16.20;7.75;;;;;;;2.83;100.00;100859.09;12212834;19;20044;-80
2023/01/22 09:33:15;;;;;;;15.67;8.80;;;;;;;2.82;100.00;100865.53;12198678;19;20557;-80
2023/01/22 09:37:17;;;;;;;10.60;7.05;;;;;;;2.76;100.00;100868.94;12214976;19;20014;-80
2023/01/22 09:41:23;;;;;;;8.52;5.57;;;;;;;2.86;100.00;100879.66;12204253;19;20010;-80
2023/01/22 09:45:25;;;;;;;9.23;5.82;;;;;;;2.93;100.00;100876.06;12235982;19;20006;-83
2023/01/22 09:49:57;;;;;;;7.47;3.90;;;;;;;3.06;100.00;100870.06;12207767;19;20006;-82
2023/01/22 09:54:02;;;;;;;8.40;4.78;;;;;;;3.23;100.00;100876.31;12178201;19;20504;-84
2023/01/22 09:58:09;;;;;;;7.70;4.43;;;;;;;3.28;100.00;100882.09;12224832;19;20134;-83
2023/01/22 10:02:33;;;;;;;6.22;3.78;;;;;;;3.47;100.00;100875.34;12252405;19;20015;-83
2023/01/22 10:06:39;;;;;;;7.07;4.00;;;;;;;3.55;100.00;100875.31;12183880;19;20006;-83
2023/01/22 10:10:41;;;;;;;6.75;3.50;;;;;;;3.56;100.00;100871.56;12203246;19;20018;-80
2023/01/22 10:14:43;;;;;;;8.80;3.53;;;;;;;3.57;100.00;100876.00;12194229;19;20673;-80
2023/01/22 10:18:49;;;;;;;7.45;3.50;;;;;;;3.63;100.00;100869.00;12204081;19;20243;-80
2023/01/22 10:22:54;;;;;;;4.63;2.75;;;;;;;3.65;100.00;100870.47;12192084;19;20049;-81
2023/01/22 10:26:57;;;;;;;10.20;4.93;;;;;;;3.54;100.00;100870.91;12177423;19;20013;-81
2023/01/22 10:31:03;;;;;;;5.93;3.42;;;;;;;3.50;100.00;100877.72;12203887;19;20788;-84
2023/01/22 10:35:15;;;;;;;19.60;8.63;;;;;;;3.49;100.00;100865.13;12204211;19;20003;-87
2023/01/22 10:39:19;;;;;;;21.05;9.48;;;;;;;3.44;100.00;100881.16;12191703;19;20014;-88
2023/01/22 10:43:27;;;;;;;13.00;7.38;;;;;;;3.55;100.00;100875.31;12225915;19;20006;-86
2023/01/22 10:47:32;;;;;;;14.23;7.50;;;;;;;3.80;100.00;100875.19;12200929;19;20475;-83
2023/01/22 10:51:40;;;;;;;7.03;3.70;;;;;;;4.03;100.00;100884.22;12229712;19;20476;-82
2023/01/22 10:55:41;;;;;;;8.20;4.72;;;;;;;4.18;100.00;100888.91;12219178;19;20041;-83
2023/01/22 10:59:48;;;;;;;8.20;4.07;;;;;;;4.39;100.00;100872.72;12194097;19;20018;-83
2023/01/22 11:03:50;;;;;;;6.78;3.85;;;;;;;4.34;100.00;100877.84;12219587;19;20003;-82
2023/01/22 11:07:57;;;;;;;5.78;3.15;;;;;;;4.43;100.00;100876.78;12219016;19;20026;-83
2023/01/22 11:12:12;;;;;;;10.32;5.65;;;;;;;4.48;100.00;100877.06;12197339;19;21906;-86
2023/01/22 11:16:18;;;;;;;15.88;7.65;;;;;;;4.31;100.00;100880.94;12214039;19;20011;-85
2023/01/22 11:20:24;;;;;;;7.72;4.05;;;;;;;4.43;100.00;100886.81;12196964;19;19999;-83
2023/01/22 11:24:45;;;;;;;5.70;3.42;;;;;;;4.46;100.00;100884.59;12216454;19;20006;-83
2023/01/22 11:29:09;;;;;;;6.95;4.70;;;;;;;4.57;100.00;100895.06;12217922;19;20006;-82
2023/01/22 11:33:19;;;;;;;5.80;3.20;;;;;;;4.46;100.00;100891.91;12209159;19;20011;-82
2023/01/22 11:37:47;;;;;;;7.05;4.75;;;;;;;4.36;100.00;100888.59;12224602;19;20018;-81
2023/01/22 11:42:01;;;;;;;5.95;3.58;;;;;;;4.29;100.00;100877.59;12203574;19;20058;-80
2023/01/22 11:46:45;;;;;;;6.45;3.67;;;;;;;4.36;100.00;100877.69;12225012;19;20018;-81
2023/01/22 11:50:54;;;;;;;7.13;3.70;;;;;;;4.27;100.00;100879.63;12205465;19;20006;-80
2023/01/22 11:55:16;;;;;;;8.18;4.60;;;;;;;4.32;100.00;100871.75;12219068;19;20010;-79
2023/01/22 11:59:50;;;;;;;7.43;3.80;;;;;;;4.40;100.00;100868.94;12207556;19;20341;-80
2023/01/22 12:03:52;;;;;;;5.40;3.00;;;;;;;4.40;100.00;100877.13;12105350;19;2004397;-80
2023/01/22 12:08:11;;;;;;;5.93;3.30;;;;;;;4.50;100.00;100869.53;12205733;19;20046;-80
2023/01/22 12:12:50;;;;;;;5.93;3.20;;;;;;;4.55;100.00;100853.47;12183986;19;20056;-81
2023/01/22 12:17:26;;;;;;;5.07;3.13;;;;;;;4.47;100.00;100856.25;12209938;19;20010;-81
2023/01/22 12:21:46;;;;;;;12.25;8.73;;;;;;;4.37;99.70;100858.38;12191108;19;20950;-81
2023/01/22 12:25:56;;;;;;;22.60;18.13;;;;;;;4.35;100.00;100849.56;12213299;19;20023;-81
2023/01/22 12:30:10;;;;;;;8.40;5.68;;;;;;;4.37;100.00;100861.13;12203965;19;20014;-80
2023/01/22 12:34:22;;;;;;;5.32;3.30;;;;;;;4.35;100.00;100865.94;12235180;19;20011;-82
2023/01/22 12:38:56;;;;;;;7.43;4.75;;;;;;;4.42;100.00;100858.69;12213235;19;20030;-82
2023/01/22 12:43:19;;;;;;;9.68;5.50;;;;;;;4.59;100.00;100858.56;12275345;19;20304;-87
2023/01/22 12:47:37;;;;;;;;;;;;;;;4.68;100.00;100860.16;12256452;19;20002;-81
2023/01/22 12:51:41;;;;;;;7.22;4.07;;;;;;;4.68;100.00;100854.72;12194726;19;19913;-81
2023/01/22 12:55:43;;;;;;;6.90;3.83;;;;;;;4.62;100.00;100861.75;12200042;19;20010;-81
2023/01/22 12:59:50;;;;;;;7.32;4.57;;;;;;;4.56;100.00;100863.34;12188727;19;20030;-82
2023/01/22 13:04:00;;;;;;;6.40;3.13;;;;;;;4.54;100.00;100865.41;12209630;19;20010;-80
2023/01/22 13:08:20;;;;;;;5.85;3.33;;;;;;;4.46;100.00;100872.81;12211052;19;19999;-80
2023/01/22 13:12:27;;;;;;;5.47;3.47;;;;;;;4.43;100.00;100873.19;12187947;19;20082;-82
2023/01/22 13:16:37;;;;;;;5.57;3.42;;;;;;;4.36;100.00;100864.03;12210097;19;20323;-85
2023/01/22 13:20:51;;;;;;;7.78;4.30;;;;;;;4.25;100.00;100877.09;12185949;19;20007;-85
2023/01/22 13:24:55;;;;;;;13.63;6.05;;;;;;;4.29;100.00;100874.84;12209084;19;20067;-85
2023/01/22 13:29:01;;;;;;;8.52;4.25;;;;;;;4.34;100.00;100877.84;12199010;19;21134;-86
2023/01/22 13:33:14;;;;;;;6.72;3.83;;;;;;;4.26;100.00;100888.84;12178757;19;20400;-87
2023/01/22 13:37:25;;;;;;;;;;;;;;;4.28;100.00;100881.31;12205172;19;20404;-87
2023/01/22 13:41:37;;;;;;;5.95;3.10;;;;;;;4.32;100.00;100888.13;12180661;19;20366;-88
2023/01/22 13:45:45;;;;;;;4.75;3.13;;;;;;;4.34;100.00;100892.38;12245137;19;20027;-89
2023/01/22 13:49:48;;;;;;;5.68;3.03;;;;;;;4.33;100.00;100903.47;12222202;19;20038;-88
2023/01/22 13:53:51;;;;;;;5.53;3.25;;;;;;;4.28;100.00;100897.69;12195712;19;20019;-86
2023/01/22 13:57:57;;;;;;;6.32;3.35;;;;;;;4.24;100.00;100896.38;12199121;19;20048;-86
2023/01/22 14:01:59;;;;;;;6.15;3.60;;;;;;;4.15;100.00;100894.72;12195707;19;20015;-85
2023/01/22 14:06:21;;;;;;;6.90;3.47;;;;;;;4.00;100.00;100895.50;12197506;19;20696;-86
2023/01/22 14:10:24;;;;;;;5.78;3.08;;;;;;;3.91;100.00;100896.59;12200793;19;20010;-86
2023/01/22 14:14:36;;;;;;;5.68;3.08;;;;;;;3.86;100.00;100905.28;12171749;19;20066;-83
2023/01/22 14:18:38;;;;;;;6.05;3.45;;;;;;;3.88;100.00;100903.25;12189379;19;20014;-83
2023/01/22 14:22:40;;;;;;;5.07;3.30;;;;;;;3.84;100.00;100901.06;12195873;19;20763;-83
2023/01/22 14:26:42;;;;;;;6.70;3.28;;;;;;;3.84;100.00;100903.81;12177582;19;20023;-84
2023/01/22 14:30:44;;;;;;;6.30;3.75;;;;;;;3.81;100.00;100912.34;12195812;19;20031;-82
2023/01/22 14:34:46;;;;;;;5.30;3.10;;;;;;;3.76;100.00;100914.75;12195954;19;20062;-83
2023/01/22 14:38:50;;;;;;;5.72;3.67;;;;;;;3.70;100.00;100905.41;12174435;19;20562;-81
2023/01/22 14:42:53;;;;;;;6.70;3.30;;;;;;;3.67;100.00;100905.75;12199888;19;20010;-82
2023/01/22 14:46:56;;;;;;;8.52;4.15;;;;;;;3.66;100.00;100912.25;12202137;19;20002;-83
2023/01/22 14:50:58;;;;;;;10.65;5.60;;;;;;;3.70;100.00;100913.56;12185482;19;20090;-83
2023/01/22 14:55:00;;;;;;;11.98;5.70;;;;;;;3.73;100.00;100923.28;12246077;19;20018;-83
2023/01/22 14:59:03;;;;;;;12.68;5.50;;;;;;;3.64;100.00;100926.03;12242877;19;20505;-85
2023/01/22 15:03:05;;;;;;;7.40;3.83;;;;;;;3.61;100.00;100922.81;12187269;19;20010;-85
2023/01/22 15:33:01;;;;;;;8.10;4.28;;;;;;;3.46;100.00;100947.25;12233949;19;20002;-86
2023/01/22 15:43:27;;;;;;;8.00;4.10;;;;;;;3.36;100.00;100965.66;12197997;19;20010;-86
2023/01/22 15:47:29;;;;;;;11.02;4.68;;;;;;;3.36;100.00;100968.38;12185285;19;20015;-85
2023/01/22 15:51:30;;;;;;;6.97;3.78;;;;;;;3.34;100.00;100973.16;12212925;19;20017;-86
2023/01/22 15:55:32;;;;;;;9.15;4.70;;;;;;;3.32;100.00;100969.75;12205134;19;20018;-83
2023/01/22 15:59:36;;;;;;;9.75;6.07;;;;;;;3.29;100.00;100970.09;12185313;19;20032;-84
2023/01/22 16:03:38;;;;;;;14.48;8.30;;;;;;;3.27;100.00;100969.41;12208895;19;20070;-85
2023/01/22 16:07:39;;;;;;;10.98;6.40;;;;;;;3.27;100.00;100970.28;12206001;19;20471;-82
2023/01/22 16:11:41;;;;;;;18.75;8.75;;;;;;;3.25;100.00;100968.75;12190735;19;20019;-83
2023/01/22 16:15:44;;;;;;;32.50;15.85;;;;;;;3.22;100.00;100975.41;12212236;19;20014;-85
2023/01/22 16:19:50;;;;;;;18.90;9.50;;;;;;;3.20;100.00;100980.16;12221659;19;20010;-85
2023/01/22 16:23:56;;;;;;;22.77;11.43;;;;;;;3.19;100.00;100984.75;12213631;19;20002;-84
2023/01/22 16:27:57;;;;;;;33.92;14.35;;;;;;;3.19;100.00;100984.75;12220002;19;20006;-84
2023/01/22 16:31:59;;;;;;;115.50;46.17;;;;;;;3.21;100.00;100981.84;12214273;19;20022;-84
2023/01/22 16:36:07;;;;;;;47.83;21.02;;;;;;;3.14;100.00;100987.16;12191187;19;20010;-87
2023/01/22 16:40:10;;;;;;;27.27;13.05;;;;;;;3.12;100.00;100988.34;12215540;19;20002;-86
2023/01/22 16:44:16;;;;;;;25.75;11.70;;;;;;;3.15;100.00;101001.63;12213464;19;20006;-85
2023/01/22 16:48:18;;;;;;;40.25;15.05;;;;;;;3.04;100.00;101002.00;12191199;19;20015;-85
2023/01/22 16:52:19;;;;;;;39.67;18.48;;;;;;;3.00;100.00;101006.91;12214143;19;20039;-86
2023/01/22 16:56:23;;;;;;;61.10;23.13;;;;;;;2.93;100.00;101011.34;12190634;19;20360;-86
2023/01/22 17:00:25;;;;;;;51.58;20.58;;;;;;;2.90;100.00;101015.25;12206060;19;20002;-85
2023/01/22 17:04:27;;;;;;;39.63;16.15;;;;;;;2.94;100.00;101008.47;12207777;19;20010;-84
2023/01/22 17:08:29;;;;;;;33.88;13.85;;;;;;;2.91;100.00;101016.94;12180497;19;20018;-84
2023/01/22 17:12:30;;;;;;;22.65;10.85;;;;;;;2.93;100.00;101011.34;12206712;19;20026;-84
2023/01/22 17:16:32;;;;;;;30.60;12.52;;;;;;;2.92;100.00;101021.38;12200577;19;20027;-83
2023/01/22 17:20:35;;;;;;;34.65;13.93;;;;;;;2.95;100.00;101028.38;12179884;19;20082;-86
2023/01/22 17:24:37;;;;;;;15.13;7.53;;;;;;;2.96;100.00;101021.91;12201388;19;20010;-81
2023/01/22 17:28:39;;;;;;;23.88;10.27;;;;;;;2.95;100.00;101026.50;12208311;19;20006;-83
2023/01/22 17:32:40;;;;;;;32.17;13.90;;;;;;;2.90;100.00;101022.56;12187752;19;20098;-85
2023/01/22 17:36:42;;;;;;;21.98;9.77;;;;;;;2.85;100.00;101033.13;12207667;19;20015;-85
2023/01/22 17:40:44;;;;;;;23.50;11.13;;;;;;;2.81;100.00;101039.94;12216952;19;20034;-85
2023/01/22 17:44:45;;;;;;;15.05;8.15;;;;;;;2.83;100.00;101029.72;12181130;19;20014;-83
2023/01/22 17:48:50;;;;;;;18.65;8.77;;;;;;;2.82;100.00;101041.63;12199748;19;20049;-84
2023/01/22 17:52:52;;;;;;;22.48;11.05;;;;;;;2.87;100.00;101050.13;12201004;19;20006;-84
2023/01/22 17:56:54;;;;;;;16.77;9.10;;;;;;;2.85;100.00;101049.44;12179963;19;19999;-84
2023/01/22 18:01:06;;;;;;;36.55;14.20;;;;;;;2.84;100.00;101050.47;12207607;19;20010;-85
2023/01/22 18:05:08;;;;;;;40.83;17.20;;;;;;;2.80;100.00;101055.41;12229348;19;20006;-83
2023/01/22 18:09:11;;;;;;;42.90;16.83;;;;;;;2.78;100.00;101062.03;12181968;19;20344;-85
2023/01/22 18:13:13;;;;;;;83.20;29.77;;;;;;;2.77;100.00;101065.78;12205433;19;20010;-85
2023/01/22 18:17:14;;;;;;;25.05;11.57;;;;;;;2.78;100.00;101067.50;12206892;19;20081;-84
2023/01/22 18:21:18;;;;;;;18.00;8.65;;;;;;;2.81;100.00;101065.28;12184656;19;20006;-84
2023/01/22 18:25:19;;;;;;;12.95;7.22;;;;;;;2.83;100.00;101081.47;12215893;19;19998;-81
2023/01/22 18:29:21;;;;;;;22.15;9.60;;;;;;;2.83;100.00;101076.00;12259040;19;19991;-82
2023/01/22 18:33:24;;;;;;;14.50;8.38;;;;;;;2.82;100.00;101075.13;12224899;19;20014;-83
2023/01/22 18:37:26;;;;;;;19.67;8.27;;;;;;;2.83;100.00;101082.31;12210200;19;21439;-83
2023/01/22 18:41:29;;;;;;;13.38;6.88;;;;;;;2.80;100.00;101085.38;12184907;19;20085;-84
2023/01/22 18:45:39;;;;;;;;;;;;;;;2.72;100.00;101079.91;12204639;19;19998;-83
2023/01/22 18:49:40;;;;;;;17.45;7.78;;;;;;;2.75;100.00;101087.72;12200478;19;19907;-83
2023/01/22 18:53:42;;;;;;;14.27;7.25;;;;;;;2.76;100.00;101085.84;12176485;19;20055;-84
2023/01/22 18:57:47;;;;;;;11.65;6.53;;;;;;;2.71;100.00;101084.50;12196924;19;20050;-83
2023/01/22 19:01:50;;;;;;;12.93;6.85;;;;;;;2.70;100.00;101088.22;12200946;19;20003;-81
2023/01/22 19:05:53;;;;;;;24.00;9.27;;;;;;;2.69;100.00;101083.81;12178733;19;20015;-83
2023/01/22 19:09:54;;;;;;;;;;;;;;;2.66;100.00;101100.47;12215655;19;20007;-83
2023/01/22 19:13:58;;;;;;;50.55;19.33;;;;;;;2.65;100.00;101096.06;12213506;19;19913;-83
2023/01/22 19:18:00;;;;;;;56.25;21.10;;;;;;;2.65;100.00;101095.22;12191502;19;20014;-83
2023/01/22 19:22:02;;;;;;;26.77;14.52;;;;;;;2.63;100.00;101102.69;12210519;19;20034;-82
2023/01/22 19:26:12;;;;;;;18.77;9.75;;;;;;;2.65;100.00;101106.94;12216624;19;20019;-81